Time;durP1;ratioP1;P1;durP2;ratioP2;P2;SDS_P1;SDS_P2;PMS_P1;PMS_P2;Temp;Humidity;BMP_temperature;BMP_pressure;BME280_temperature;BME280_humidity;BME280_pressure;Samples;Min_cycle;Max_cycle;Signal;HPM_P1;HPM_P2
2023/08/29 00:01:06;;;;;;;6.07;3.07;;;18.00;75.10;;;;;;5024293;28;20474;-77
2023/08/29 00:03:34;;;;;;;6.23;3.03;;;18.00;75.20;;;;;;5025907;28;20850;-79
2023/08/29 00:06:03;;;;;;;6.17;3.23;;;18.00;75.20;;;;;;5026796;28;20455;-79
2023/08/29 00:08:32;;;;;;;4.70;2.63;;;18.00;75.30;;;;;;5021431;28;20454;-77
2023/08/29 00:11:01;;;;;;;5.40;3.30;;;18.00;75.30;;;;;;5018278;28;20460;-77
2023/08/29 00:13:31;;;;;;;6.00;2.80;;;18.00;75.40;;;;;;5022947;28;20463;-77
2023/08/29 00:16:00;;;;;;;7.13;3.20;;;18.00;75.40;;;;;;5023565;28;20467;-79
2023/08/29 00:18:28;;;;;;;5.47;3.33;;;17.90;75.50;;;;;;5024889;28;20478;-78
2023/08/29 00:20:56;;;;;;;9.80;3.30;;;17.90;75.50;;;;;;5021982;28;20544;-79
2023/08/29 00:23:24;;;;;;;6.27;2.90;;;17.90;75.60;;;;;;5025014;28;20509;-79
2023/08/29 00:25:52;;;;;;;6.60;3.20;;;17.90;75.70;;;;;;5018537;28;20521;-78
2023/08/29 00:28:20;;;;;;;6.30;3.20;;;17.90;75.70;;;;;;5020451;28;20505;-77
2023/08/29 00:30:49;;;;;;;5.13;3.10;;;17.90;75.80;;;;;;5023341;28;20557;-81
2023/08/29 00:33:18;;;;;;;7.90;2.60;;;17.90;75.90;;;;;;5024764;28;20512;-78
2023/08/29 00:35:47;;;;;;;7.57;3.60;;;17.90;76.00;;;;;;5025868;28;20470;-80
2023/08/29 00:38:15;;;;;;;5.00;3.00;;;17.90;76.10;;;;;;5024038;28;20465;-77
2023/08/29 00:40:43;;;;;;;7.70;3.37;;;17.90;76.10;;;;;;5028783;28;20524;-79
2023/08/29 00:43:11;;;;;;;6.20;3.30;;;17.90;76.20;;;;;;5024281;28;20459;-78
2023/08/29 00:45:40;;;;;;;7.17;3.20;;;17.80;76.20;;;;;;5017981;28;20498;-78
2023/08/29 00:48:10;;;;;;;5.00;3.10;;;17.80;76.30;;;;;;5021650;28;20466;-78
2023/08/29 00:50:39;;;;;;;6.40;3.20;;;17.80;76.40;;;;;;5019622;28;20464;-78
2023/08/29 00:53:08;;;;;;;5.63;3.13;;;17.80;76.40;;;;;;5026267;28;20856;-80
2023/08/29 00:55:38;;;;;;;8.87;3.20;;;17.80;76.40;;;;;;5021447;28;20569;-79
2023/08/29 00:58:07;;;;;;;5.80;3.23;;;17.80;76.50;;;;;;5022042;28;20792;-78
2023/08/29 01:00:36;;;;;;;6.40;3.23;;;17.80;76.50;;;;;;5023071;28;21166;-77
2023/08/29 01:03:05;;;;;;;5.83;3.00;;;17.80;76.60;;;;;;5016637;28;20494;-79
2023/08/29 01:05:35;;;;;;;4.80;3.03;;;17.80;76.60;;;;;;5024372;28;20482;-82
2023/08/29 01:08:03;;;;;;;5.80;3.30;;;17.80;76.70;;;;;;5021887;28;20891;-81
2023/08/29 01:10:37;;;;;;;5.73;3.10;;;17.80;76.70;;;;;;5022982;28;20464;-78
2023/08/29 01:13:15;;;;;;;6.43;3.43;;;17.80;76.80;;;;;;5018495;28;20562;-79
2023/08/29 01:15:45;;;;;;;7.40;3.70;;;17.80;76.80;;;;;;5022054;28;20470;-77
2023/08/29 01:18:17;;;;;;;5.63;2.70;;;17.80;76.80;;;;;;5024666;28;20465;-78
2023/08/29 01:20:48;;;;;;;5.10;3.20;;;17.80;76.90;;;;;;5020368;28;20455;-77
2023/08/29 01:23:22;;;;;;;6.00;3.43;;;17.70;76.90;;;;;;5019051;28;20476;-79
2023/08/29 01:25:56;;;;;;;6.23;3.53;;;17.80;77.00;;;;;;5047968;28;20523;-76
2023/08/29 01:28:26;;;;;;;6.10;3.10;;;17.80;77.00;;;;;;5022984;28;21353;-80
2023/08/29 01:30:54;;;;;;;5.93;3.20;;;17.80;77.10;;;;;;5018781;28;20483;-78
2023/08/29 01:33:22;;;;;;;7.77;3.20;;;17.70;77.10;;;;;;5020999;28;20510;-77
2023/08/29 01:35:50;;;;;;;6.40;3.20;;;17.70;77.20;;;;;;5030741;28;20527;-77
2023/08/29 01:38:21;;;;;;;5.50;3.23;;;17.70;77.30;;;;;;5014915;28;20463;-78
2023/08/29 01:40:50;;;;;;;6.30;3.00;;;17.70;77.40;;;;;;5022915;28;20494;-77
2023/08/29 01:43:18;;;;;;;6.80;2.90;;;17.80;77.40;;;;;;5016538;28;20476;-78
2023/08/29 01:45:47;;;;;;;7.93;3.83;;;17.80;77.40;;;;;;5022009;28;20478;-79
2023/08/29 01:48:16;;;;;;;6.43;3.37;;;17.80;77.50;;;;;;5022521;28;20560;-77
2023/08/29 01:50:45;;;;;;;6.97;3.50;;;17.80;77.50;;;;;;5015367;28;20984;-78
2023/08/29 01:53:13;;;;;;;5.30;2.93;;;17.80;77.50;;;;;;5026832;28;20493;-77
2023/08/29 01:55:45;;;;;;;6.00;3.30;;;17.80;77.50;;;;;;5032682;28;20525;-77
2023/08/29 01:58:16;;;;;;;6.87;3.60;;;17.80;77.60;;;;;;5032489;28;21398;-77
2023/08/29 02:00:45;;;;;;;8.17;4.03;;;17.80;77.60;;;;;;5027691;28;20485;-80
2023/08/29 02:03:14;;;;;;;5.93;3.20;;;17.80;77.60;;;;;;5025635;28;20550;-79
2023/08/29 02:05:44;;;;;;;8.73;3.67;;;17.80;77.70;;;;;;5038113;28;20485;-80
2023/08/29 02:08:12;;;;;;;5.83;3.13;;;17.80;77.70;;;;;;5027759;28;20548;-78
2023/08/29 02:10:40;;;;;;;8.17;3.50;;;17.80;77.70;;;;;;5018698;28;20467;-77
2023/08/29 02:13:09;;;;;;;10.13;4.03;;;17.80;77.80;;;;;;5023873;28;20524;-78
2023/08/29 02:15:37;;;;;;;7.90;4.20;;;17.80;77.80;;;;;;5019797;28;20554;-79
2023/08/29 02:18:06;;;;;;;8.20;3.87;;;17.80;77.70;;;;;;5026673;28;20463;-78
2023/08/29 02:20:39;;;;;;;10.30;3.70;;;17.80;77.70;;;;;;5031462;28;20469;-79
2023/08/29 02:23:11;;;;;;;6.10;3.77;;;17.80;77.70;;;;;;5029173;28;20471;-76
2023/08/29 02:25:40;;;;;;;7.47;4.17;;;17.80;77.70;;;;;;5027370;28;20473;-78
2023/08/29 02:28:08;;;;;;;8.47;3.60;;;17.80;77.70;;;;;;5028890;28;20543;-80
2023/08/29 02:30:36;;;;;;;7.40;3.97;;;17.80;77.70;;;;;;5032315;28;20567;-78
2023/08/29 02:33:05;;;;;;;6.00;3.77;;;17.80;77.70;;;;;;5021347;28;20575;-80
2023/08/29 02:35:33;;;;;;;6.50;3.97;;;17.80;77.70;;;;;;5051910;28;20460;-78
2023/08/29 02:38:03;;;;;;;9.10;4.23;;;17.80;77.70;;;;;;5023881;28;20472;-78
2023/08/29 02:40:34;;;;;;;6.40;4.07;;;17.80;77.70;;;;;;5027685;28;20468;-80
2023/08/29 02:43:03;;;;;;;7.73;3.90;;;17.80;77.70;;;;;;5026178;28;20488;-80
2023/08/29 02:45:30;;;;;;;10.67;4.70;;;17.80;77.70;;;;;;5025707;28;20549;-78
2023/08/29 02:47:58;;;;;;;6.93;4.13;;;17.80;77.70;;;;;;5023900;28;20465;-78
2023/08/29 02:50:27;;;;;;;9.50;4.60;;;17.80;77.80;;;;;;5022950;28;20466;-80
2023/08/29 02:52:54;;;;;;;7.70;3.90;;;17.80;77.80;;;;;;5025767;28;20493;-77
2023/08/29 02:55:24;;;;;;;8.77;4.03;;;17.80;77.80;;;;;;5019089;28;20457;-79
2023/08/29 02:57:52;;;;;;;8.83;4.60;;;17.80;77.80;;;;;;5023023;28;20567;-78
2023/08/29 03:00:21;;;;;;;6.93;4.77;;;17.80;77.80;;;;;;5023680;28;20492;-79
2023/08/29 03:02:49;;;;;;;8.63;3.87;;;17.80;77.70;;;;;;5024378;28;20461;-77
2023/08/29 03:05:17;;;;;;;6.90;3.83;;;17.80;77.70;;;;;;5023127;28;20463;-80
2023/08/29 03:07:45;;;;;;;7.43;4.20;;;17.80;77.80;;;;;;5023581;28;20456;-78
2023/08/29 03:10:13;;;;;;;7.60;4.50;;;17.80;77.70;;;;;;5028891;28;20438;-78
2023/08/29 03:12:42;;;;;;;6.40;4.53;;;17.80;77.80;;;;;;5023946;28;20913;-77
2023/08/29 03:15:13;;;;;;;7.00;4.13;;;17.80;77.80;;;;;;5050858;28;20467;-77
2023/08/29 03:17:43;;;;;;;7.70;4.30;;;17.80;77.80;;;;;;5027611;28;20495;-79
2023/08/29 03:20:12;;;;;;;8.60;4.60;;;17.80;77.90;;;;;;5030745;28;20498;-77
2023/08/29 03:22:40;;;;;;;7.67;4.50;;;17.80;77.90;;;;;;5026532;28;21218;-79
2023/08/29 03:25:09;;;;;;;10.53;4.20;;;17.80;77.90;;;;;;5022322;28;20548;-77
2023/08/29 03:27:37;;;;;;;7.80;4.03;;;17.80;77.90;;;;;;5023479;28;21143;-79
2023/08/29 03:30:08;;;;;;;7.57;5.00;;;17.80;77.90;;;;;;5020092;28;20555;-77
2023/08/29 03:32:36;;;;;;;7.93;4.50;;;17.80;78.00;;;;;;5042714;28;20483;-78
2023/08/29 03:35:05;;;;;;;9.20;4.23;;;17.80;78.00;;;;;;5025593;28;20515;-78
2023/08/29 03:37:33;;;;;;;6.60;3.50;;;17.70;78.00;;;;;;5019618;28;20976;-78
2023/08/29 03:40:01;;;;;;;5.70;4.07;;;17.80;78.00;;;;;;5020545;28;20470;-77
2023/08/29 03:42:31;;;;;;;7.23;3.90;;;17.70;78.10;;;;;;5021033;28;20466;-78
2023/08/29 03:44:59;;;;;;;6.93;3.80;;;17.70;78.20;;;;;;5023553;28;20463;-78
2023/08/29 03:47:28;;;;;;;7.07;4.33;;;17.70;78.20;;;;;;5019310;28;20475;-78
2023/08/29 03:49:56;;;;;;;5.90;3.90;;;17.70;78.30;;;;;;5022703;28;20465;-76
2023/08/29 03:52:26;;;;;;;5.63;3.63;;;17.70;78.30;;;;;;5021058;28;21142;-79
2023/08/29 03:54:56;;;;;;;13.63;4.30;;;17.70;78.30;;;;;;5020114;28;20587;-80
2023/08/29 03:57:26;;;;;;;6.47;4.20;;;17.70;78.30;;;;;;5046257;28;20454;-77
2023/08/29 03:59:54;;;;;;;7.00;3.43;;;17.70;78.30;;;;;;5020473;28;20478;-78
2023/08/29 04:02:22;;;;;;;7.00;3.40;;;17.70;78.40;;;;;;5003622;28;20490;-77
2023/08/29 04:04:53;;;;;;;8.70;3.60;;;17.70;78.40;;;;;;5008703;28;20835;-79
2023/08/29 04:07:21;;;;;;;8.60;3.57;;;17.70;78.40;;;;;;5002790;28;20482;-76
2023/08/29 04:09:49;;;;;;;9.43;3.67;;;17.70;78.40;;;;;;5008042;28;20954;-77
2023/08/29 04:12:17;;;;;;;8.40;3.50;;;17.70;78.50;;;;;;5007677;28;20471;-77
2023/08/29 04:14:45;;;;;;;10.13;3.80;;;17.70;78.50;;;;;;5006424;28;21174;-79
2023/08/29 04:17:13;;;;;;;7.10;4.10;;;17.70;78.60;;;;;;5006632;28;20458;-77
2023/08/29 04:19:41;;;;;;;8.47;3.80;;;17.60;78.60;;;;;;4997393;28;20460;-78
2023/08/29 04:22:11;;;;;;;7.17;3.77;;;17.60;78.60;;;;;;5002445;28;20467;-79
2023/08/29 04:24:39;;;;;;;7.33;3.83;;;17.60;78.60;;;;;;5004908;28;20474;-77
2023/08/29 04:27:07;;;;;;;6.27;3.57;;;17.60;78.70;;;;;;5004782;28;20515;-78
2023/08/29 04:29:35;;;;;;;7.93;4.57;;;17.60;78.60;;;;;;5006384;28;20525;-79
2023/08/29 04:32:03;;;;;;;7.87;4.30;;;17.60;78.60;;;;;;5006662;28;20476;-79
2023/08/29 04:34:31;;;;;;;6.80;3.80;;;17.60;78.70;;;;;;5003344;28;20476;-77
2023/08/29 04:36:59;;;;;;;6.97;3.90;;;17.60;78.70;;;;;;5003837;28;21246;-80
2023/08/29 04:39:29;;;;;;;7.30;3.63;;;17.70;78.70;;;;;;5017052;28;20476;-78
2023/08/29 04:41:57;;;;;;;6.70;4.07;;;17.70;78.70;;;;;;5003009;28;20479;-79
2023/08/29 04:44:25;;;;;;;6.60;4.40;;;17.70;78.70;;;;;;5005781;28;20455;-78
2023/08/29 04:46:54;;;;;;;6.93;4.13;;;17.70;78.70;;;;;;4999711;28;21227;-78
2023/08/29 04:49:23;;;;;;;6.00;3.70;;;17.70;78.70;;;;;;5004842;28;20467;-79
2023/08/29 04:51:51;;;;;;;5.97;3.97;;;17.70;78.80;;;;;;5002546;28;20484;-79
2023/08/29 04:54:19;;;;;;;6.00;3.73;;;17.70;78.80;;;;;;5014196;28;20498;-79
2023/08/29 04:56:48;;;;;;;7.40;4.30;;;17.70;78.80;;;;;;4995801;28;20472;-77
2023/08/29 04:59:17;;;;;;;10.00;4.23;;;17.70;78.90;;;;;;4996921;28;20567;-79
2023/08/29 05:01:45;;;;;;;8.80;3.80;;;17.70;78.90;;;;;;5008366;28;20482;-78
2023/08/29 05:04:18;;;;;;;7.37;4.33;;;17.70;78.90;;;;;;5008120;28;20981;-80
2023/08/29 05:06:46;;;;;;;7.10;3.80;;;17.70;79.00;;;;;;5009134;28;20529;-79
2023/08/29 05:09:15;;;;;;;11.80;4.50;;;17.70;79.00;;;;;;5039678;28;20537;-80
2023/08/29 05:11:48;;;;;;;8.43;4.50;;;17.70;79.00;;;;;;5004234;28;20518;-76
2023/08/29 05:14:16;;;;;;;12.80;4.30;;;17.70;78.90;;;;;;5009260;28;21357;-78
2023/08/29 05:16:45;;;;;;;9.07;4.00;;;17.70;78.90;;;;;;5007890;28;20939;-77
2023/08/29 05:19:13;;;;;;;7.43;3.70;;;17.70;78.90;;;;;;5008176;28;20466;-77
2023/08/29 05:21:42;;;;;;;6.70;4.47;;;17.70;78.90;;;;;;5041303;28;20464;-77
2023/08/29 05:24:11;;;;;;;8.73;4.00;;;17.70;79.00;;;;;;5006954;28;20841;-79
2023/08/29 05:26:39;;;;;;;6.80;3.87;;;17.70;79.00;;;;;;5009155;28;20477;-77
2023/08/29 05:29:08;;;;;;;6.50;3.63;;;17.80;78.90;;;;;;5011240;28;20448;-78
2023/08/29 05:31:36;;;;;;;6.57;3.73;;;17.80;78.90;;;;;;5009529;28;20471;-79
2023/08/29 05:34:05;;;;;;;6.93;3.43;;;17.80;78.80;;;;;;5011741;28;20458;-77
2023/08/29 05:36:33;;;;;;;6.93;4.10;;;17.80;78.80;;;;;;5001538;28;20494;-79
2023/08/29 05:39:01;;;;;;;7.27;4.27;;;17.80;78.80;;;;;;5006890;28;20890;-77
2023/08/29 05:41:30;;;;;;;6.03;3.83;;;17.80;78.80;;;;;;5000118;28;20470;-78
2023/08/29 05:43:58;;;;;;;6.10;3.87;;;17.80;78.90;;;;;;4998951;28;20467;-77
2023/08/29 05:46:27;;;;;;;7.40;4.20;;;17.80;79.00;;;;;;5007811;28;20494;-77
2023/08/29 05:48:57;;;;;;;6.20;4.23;;;17.90;79.10;;;;;;5007718;28;21217;-77
2023/08/29 05:51:25;;;;;;;7.43;4.70;;;17.90;79.00;;;;;;4998594;28;20868;-78
2023/08/29 05:53:54;;;;;;;8.17;4.47;;;17.90;79.20;;;;;;5015331;28;20466;-80
2023/08/29 05:56:23;;;;;;;6.60;4.17;;;17.90;79.30;;;;;;5005448;28;20467;-78
2023/08/29 05:58:50;;;;;;;6.87;4.03;;;17.90;79.30;;;;;;5009546;28;20465;-79
2023/08/29 06:01:18;;;;;;;7.90;4.67;;;17.90;79.30;;;;;;5002183;28;21027;-78
2023/08/29 06:03:49;;;;;;;6.73;4.47;;;17.90;79.50;;;;;;5003229;28;20477;-77
2023/08/29 06:06:17;;;;;;;5.90;3.83;;;17.90;79.50;;;;;;5004769;28;20488;-79
2023/08/29 06:08:46;;;;;;;6.27;3.77;;;17.90;79.50;;;;;;5004163;28;21001;-80
2023/08/29 06:11:14;;;;;;;9.97;4.50;;;17.90;79.50;;;;;;4998280;28;20462;-76
2023/08/29 06:13:43;;;;;;;5.43;3.40;;;17.90;79.50;;;;;;4997328;28;20460;-79
2023/08/29 06:16:12;;;;;;;7.03;3.73;;;17.90;79.50;;;;;;4997593;28;20499;-78
2023/08/29 06:18:40;;;;;;;7.73;3.90;;;18.00;79.30;;;;;;4998780;28;20466;-80
2023/08/29 06:21:09;;;;;;;6.27;3.50;;;18.00;79.30;;;;;;5006918;28;20461;-79
2023/08/29 06:23:37;;;;;;;6.60;3.37;;;18.00;79.30;;;;;;5003600;28;20471;-78
2023/08/29 06:26:05;;;;;;;7.13;3.77;;;18.00;79.30;;;;;;5007676;28;21075;-77
2023/08/29 06:28:33;;;;;;;6.97;4.00;;;18.00;79.30;;;;;;5004558;28;20826;-77
2023/08/29 06:31:05;;;;;;;6.23;3.20;;;18.10;79.00;;;;;;5016812;28;20470;-80
2023/08/29 06:33:36;;;;;;;5.77;3.33;;;18.10;79.00;;;;;;5021690;28;20970;-80
2023/08/29 06:36:04;;;;;;;6.73;3.90;;;18.00;78.80;;;;;;5026836;28;21174;-78
2023/08/29 06:38:34;;;;;;;5.93;3.43;;;18.00;78.60;;;;;;5028320;28;20452;-78
2023/08/29 06:41:04;;;;;;;6.10;3.27;;;18.00;78.60;;;;;;5028117;28;20454;-78
2023/08/29 06:43:32;;;;;;;5.63;3.00;;;18.00;78.60;;;;;;5018892;28;20541;-77
2023/08/29 06:46:00;;;;;;;5.87;3.67;;;18.00;78.60;;;;;;5028609;28;20804;-80
2023/08/29 06:48:29;;;;;;;6.17;2.90;;;18.00;78.50;;;;;;5026544;28;20514;-77
2023/08/29 06:50:56;;;;;;;6.40;3.27;;;18.00;78.50;;;;;;5024524;28;20469;-78
2023/08/29 06:53:26;;;;;;;6.03;3.50;;;18.00;78.40;;;;;;5025751;28;20459;-78
2023/08/29 06:55:56;;;;;;;5.77;3.67;;;18.00;78.30;;;;;;5020390;28;20556;-78
2023/08/29 06:58:24;;;;;;;8.23;4.00;;;18.00;78.30;;;;;;5032786;28;20437;-79
2023/08/29 07:00:54;;;;;;;9.17;3.93;;;18.00;78.40;;;;;;5022926;28;20487;-78
2023/08/29 07:03:22;;;;;;;8.50;3.80;;;18.00;78.50;;;;;;5026497;28;20917;-76
2023/08/29 07:05:50;;;;;;;6.60;3.63;;;18.00;78.40;;;;;;5026622;28;20498;-79
2023/08/29 07:08:18;;;;;;;7.33;4.17;;;18.00;78.40;;;;;;5029018;28;20989;-78
2023/08/29 07:10:46;;;;;;;9.03;4.23;;;18.00;78.40;;;;;;5029377;28;20482;-77
2023/08/29 07:13:15;;;;;;;7.33;3.83;;;18.00;78.40;;;;;;5032593;28;20450;-78
2023/08/29 07:15:43;;;;;;;7.37;4.53;;;18.00;78.40;;;;;;5028728;28;20455;-79
2023/08/29 07:18:13;;;;;;;6.97;3.70;;;18.10;78.40;;;;;;5034289;28;20454;-80
2023/08/29 07:20:41;;;;;;;7.20;3.83;;;18.10;78.40;;;;;;5024458;28;20504;-80
2023/08/29 07:23:09;;;;;;;9.17;3.93;;;18.10;78.40;;;;;;5019716;28;20460;-76
2023/08/29 07:25:38;;;;;;;7.50;3.53;;;18.10;78.40;;;;;;5019657;28;20467;-78
2023/08/29 07:28:08;;;;;;;6.30;3.83;;;18.00;78.50;;;;;;5022867;28;20485;-78
2023/08/29 07:30:42;;;;;;;7.40;3.77;;;18.10;78.50;;;;;;5024416;28;21420;-79
2023/08/29 07:33:11;;;;;;;6.23;3.60;;;18.10;78.60;;;;;;5023441;28;20454;-78
2023/08/29 07:35:40;;;;;;;7.40;3.93;;;18.10;78.60;;;;;;5021991;28;20462;-77
2023/08/29 07:38:08;;;;;;;6.07;3.70;;;18.10;78.50;;;;;;5030078;28;20451;-76
2023/08/29 07:40:37;;;;;;;6.80;3.47;;;18.10;78.50;;;;;;5025861;28;21002;-79
2023/08/29 07:43:07;;;;;;;6.40;3.20;;;18.10;78.50;;;;;;5024857;28;20854;-77
2023/08/29 07:45:37;;;;;;;13.47;3.87;;;18.10;78.50;;;;;;5029112;28;20470;-78
2023/08/29 07:48:05;;;;;;;6.60;4.00;;;18.10;78.50;;;;;;5026377;28;20486;-78
2023/08/29 07:50:34;;;;;;;6.67;3.67;;;18.10;78.50;;;;;;5025995;28;20464;-77
2023/08/29 07:53:02;;;;;;;8.03;4.10;;;18.10;78.50;;;;;;5028941;28;20470;-79
2023/08/29 07:55:31;;;;;;;5.70;3.50;;;18.10;78.50;;;;;;5021998;28;20555;-78
2023/08/29 07:58:01;;;;;;;7.73;4.20;;;18.10;78.60;;;;;;5026524;28;20469;-80
2023/08/29 08:00:30;;;;;;;10.40;4.10;;;18.20;78.60;;;;;;5021713;28;20490;-77
2023/08/29 08:03:00;;;;;;;8.47;4.00;;;18.20;78.70;;;;;;5027408;28;20456;-78
2023/08/29 08:05:30;;;;;;;6.63;3.60;;;18.20;78.70;;;;;;5022975;28;20525;-77
2023/08/29 08:07:59;;;;;;;11.73;4.80;;;18.20;78.80;;;;;;5025138;28;20462;-77
2023/08/29 08:10:27;;;;;;;7.70;4.20;;;18.20;78.80;;;;;;5026520;28;20488;-79
2023/08/29 08:12:56;;;;;;;7.50;4.47;;;18.20;78.90;;;;;;5022847;28;20467;-78
2023/08/29 08:15:24;;;;;;;9.50;4.57;;;18.20;79.00;;;;;;5027244;28;20468;-80
2023/08/29 08:17:52;;;;;;;7.47;4.17;;;18.20;79.20;;;;;;5022318;28;20458;-79
2023/08/29 08:20:23;;;;;;;13.23;4.80;;;18.20;79.20;;;;;;5023038;28;20541;-78
2023/08/29 08:22:51;;;;;;;7.33;4.13;;;18.20;79.30;;;;;;5021753;28;20494;-81
2023/08/29 08:25:19;;;;;;;7.30;4.43;;;18.20;79.40;;;;;;5019810;28;20916;-79
2023/08/29 08:27:47;;;;;;;7.87;4.70;;;18.30;79.50;;;;;;5019466;28;20832;-78
2023/08/29 08:30:15;;;;;;;8.17;4.83;;;18.30;79.60;;;;;;5022682;28;21155;-79
2023/08/29 08:32:44;;;;;;;9.30;5.40;;;18.30;79.60;;;;;;5035444;28;20472;-79
2023/08/29 08:35:12;;;;;;;9.27;5.57;;;18.30;79.60;;;;;;5023798;28;20453;-78
2023/08/29 08:37:41;;;;;;;7.77;4.90;;;18.30;79.70;;;;;;5020749;28;20460;-81
2023/08/29 08:40:11;;;;;;;8.67;5.50;;;18.40;79.70;;;;;;5020723;28;20451;-79
2023/08/29 08:42:40;;;;;;;11.03;5.27;;;18.40;79.80;;;;;;5026418;28;20483;-79
2023/08/29 08:45:10;;;;;;;7.53;4.93;;;18.40;79.90;;;;;;5026334;28;20542;-79
2023/08/29 08:47:40;;;;;;;10.07;4.90;;;18.40;80.00;;;;;;5029640;28;20451;-80
2023/08/29 08:50:09;;;;;;;8.40;5.00;;;18.40;80.00;;;;;;5022419;28;20482;-79
2023/08/29 08:52:41;;;;;;;9.10;5.47;;;18.40;80.10;;;;;;5024071;28;20532;-80
2023/08/29 08:55:09;;;;;;;10.00;5.57;;;18.50;80.10;;;;;;5013154;28;20547;-80
2023/08/29 08:57:38;;;;;;;6.90;5.20;;;18.50;80.20;;;;;;5022530;28;20455;-78
2023/08/29 09:00:07;;;;;;;7.17;5.33;;;18.50;80.20;;;;;;5025548;28;20475;-79
2023/08/29 09:02:37;;;;;;;9.20;5.30;;;18.50;80.30;;;;;;5017139;28;20559;-80
2023/08/29 09:05:06;;;;;;;11.33;5.30;;;18.60;80.20;;;;;;5030519;28;20481;-79
2023/08/29 09:07:39;;;;;;;9.73;5.90;;;18.60;80.20;;;;;;5020043;28;20447;-80
2023/08/29 09:10:11;;;;;;;8.13;5.03;;;18.60;80.30;;;;;;5027884;28;20467;-80
2023/08/29 09:12:47;;;;;;;8.83;5.13;;;18.70;80.40;;;;;;5034916;28;21075;-79
2023/08/29 09:15:16;;;;;;;9.43;5.80;;;18.70;80.40;;;;;;5031993;28;20563;-81
2023/08/29 09:17:46;;;;;;;9.47;6.53;;;18.70;80.50;;;;;;5024963;28;20490;-78
2023/08/29 09:20:17;;;;;;;11.20;5.50;;;18.70;80.70;;;;;;5022549;28;20458;-79
2023/08/29 09:22:45;;;;;;;11.33;6.37;;;18.70;80.70;;;;;;5019832;28;20962;-78
2023/08/29 09:25:15;;;;;;;9.90;7.00;;;18.70;80.90;;;;;;5019837;28;20452;-81
2023/08/29 09:27:45;;;;;;;8.57;6.20;;;18.80;81.00;;;;;;5024059;28;20464;-79
2023/08/29 09:30:16;;;;;;;7.53;5.13;;;18.80;81.00;;;;;;5026559;28;20881;-79
2023/08/29 09:32:45;;;;;;;10.40;5.73;;;18.80;80.90;;;;;;5027519;28;20468;-79
2023/08/29 09:35:15;;;;;;;8.70;5.60;;;18.80;80.80;;;;;;5026145;28;20458;-78
2023/08/29 09:37:50;;;;;;;10.47;6.30;;;18.80;80.90;;;;;;5022982;28;20447;-80
2023/08/29 09:40:23;;;;;;;9.53;5.77;;;18.80;80.90;;;;;;5019045;28;20511;-78
2023/08/29 09:42:54;;;;;;;13.87;7.87;;;18.90;81.00;;;;;;5032376;28;20451;-78
2023/08/29 09:45:23;;;;;;;11.03;7.17;;;18.90;80.90;;;;;;5022518;28;20949;-79
2023/08/29 09:47:54;;;;;;;14.03;8.07;;;18.90;80.90;;;;;;5027657;28;20455;-79
2023/08/29 09:50:22;;;;;;;8.83;6.17;;;19.00;81.00;;;;;;5031948;28;20557;-80
2023/08/29 09:52:53;;;;;;;9.43;6.30;;;19.00;81.00;;;;;;5021641;28;20456;-78
2023/08/29 09:55:25;;;;;;;10.10;6.93;;;19.00;81.00;;;;;;5021631;28;20460;-79
2023/08/29 09:57:54;;;;;;;9.00;5.20;;;19.10;80.80;;;;;;5024395;28;20478;-78
2023/08/29 10:00:23;;;;;;;12.43;4.37;;;19.00;80.70;;;;;;5023255;28;20820;-80
2023/08/29 10:02:55;;;;;;;6.87;4.30;;;19.00;80.70;;;;;;5020179;28;20974;-79
2023/08/29 10:05:27;;;;;;;8.00;4.17;;;19.10;80.70;;;;;;5023400;28;21023;-78
2023/08/29 10:07:58;;;;;;;6.70;3.67;;;19.10;80.60;;;;;;5022709;28;20455;-79
2023/08/29 10:10:28;;;;;;;8.00;4.20;;;19.10;80.40;;;;;;5019447;28;20833;-79
2023/08/29 10:12:58;;;;;;;8.87;3.97;;;19.10;80.30;;;;;;5025114;28;20451;-78
2023/08/29 10:15:26;;;;;;;6.57;4.00;;;19.10;80.20;;;;;;5024776;28;20563;-79
2023/08/29 10:17:56;;;;;;;9.30;3.63;;;19.10;80.00;;;;;;5019968;28;20463;-79
2023/08/29 10:20:25;;;;;;;7.53;3.77;;;19.10;79.80;;;;;;5020380;28;20456;-80
2023/08/29 10:22:55;;;;;;;8.97;4.17;;;19.10;79.70;;;;;;5031881;28;20949;-79
2023/08/29 10:25:23;;;;;;;7.77;4.23;;;19.20;79.50;;;;;;5025510;28;20537;-79
2023/08/29 10:27:53;;;;;;;7.13;3.40;;;19.20;79.50;;;;;;5025233;28;20471;-80
2023/08/29 10:30:22;;;;;;;6.13;3.30;;;19.20;79.50;;;;;;5026609;28;20634;-79
2023/08/29 10:32:53;;;;;;;6.33;3.53;;;19.20;79.30;;;;;;5028624;28;20512;-79
2023/08/29 10:35:38;;;;;;;9.97;3.40;;;19.20;79.10;;;;;;5027370;28;20463;-79
2023/08/29 11:07:39;;;;;;;7.30;3.20;;;19.50;77.80;;;;;;5018388;28;20578;-79
2023/08/29 11:14:13;;;;;;;6.27;2.90;;;19.50;77.50;;;;;;5025968;28;20829;-79
2023/08/29 11:17:11;;;;;;;5.50;2.30;;;19.50;77.20;;;;;;5023783;28;20818;-79
2023/08/29 11:19:41;;;;;;;5.50;2.23;;;19.60;77.00;;;;;;5023353;28;20454;-80
2023/08/29 11:22:11;;;;;;;4.90;1.93;;;19.60;76.80;;;;;;5022614;28;20491;-78
2023/08/29 11:24:41;;;;;;;5.33;2.30;;;19.60;76.70;;;;;;5023908;28;20539;-80
2023/08/29 11:27:17;;;;;;;5.70;2.40;;;19.60;76.60;;;;;;5019948;28;20500;-81
2023/08/29 11:29:45;;;;;;;6.60;2.80;;;19.60;76.50;;;;;;5027015;28;20479;-79
2023/08/29 11:32:12;;;;;;;5.50;2.30;;;19.60;76.40;;;;;;5027726;28;21055;-80
2023/08/29 11:34:41;;;;;;;4.50;1.97;;;19.60;76.40;;;;;;5022657;28;20459;-79
2023/08/29 11:37:10;;;;;;;5.50;2.40;;;19.70;76.30;;;;;;5040113;28;20962;-79
2023/08/29 11:44:00;;;;;;;7.40;2.73;;;19.80;76.20;;;;;;5024167;28;20430;-79
2023/08/29 11:46:48;;;;;;;8.10;2.80;;;19.80;76.10;;;;;;5018213;28;20966;-79
2023/08/29 11:49:17;;;;;;;5.47;2.20;;;19.90;76.00;;;;;;5023274;28;20565;-79
2023/08/29 11:51:45;;;;;;;6.40;2.60;;;19.90;75.90;;;;;;5020228;28;20572;-81
2023/08/29 11:54:40;;;;;;;7.77;2.60;;;20.00;75.80;;;;;;5027773;28;20493;-79
2023/08/29 11:57:12;;;;;;;9.07;2.80;;;20.00;75.50;;;;;;5028424;28;20444;-79
2023/08/29 11:59:42;;;;;;;5.13;1.90;;;20.10;75.50;;;;;;5021546;28;20950;-78
2023/08/29 12:02:13;;;;;;;4.73;1.73;;;20.10;75.20;;;;;;5023450;28;20538;-79
2023/08/29 12:04:46;;;;;;;5.30;1.90;;;20.10;74.70;;;;;;5024366;28;21080;-79
2023/08/29 12:07:16;;;;;;;5.87;1.80;;;20.10;74.60;;;;;;5024919;28;20586;-79
2023/08/29 12:09:46;;;;;;;5.20;1.63;;;20.10;74.50;;;;;;5021842;28;20467;-79
2023/08/29 12:12:29;;;;;;;5.60;1.90;;;20.10;74.40;;;;;;5022638;28;20532;-79
2023/08/29 12:15:10;;;;;;;4.90;1.70;;;20.20;74.10;;;;;;5027864;28;20946;-79
2023/08/29 12:17:41;;;;;;;5.13;1.63;;;20.20;74.10;;;;;;5025478;28;20459;-80
2023/08/29 12:20:30;;;;;;;3.70;1.30;;;20.20;74.10;;;;;;5025541;28;21042;-79
2023/08/29 12:22:58;;;;;;;5.93;1.77;;;20.30;73.50;;;;;;5025648;28;20642;-80
2023/08/29 12:25:26;;;;;;;5.13;1.60;;;20.20;73.30;;;;;;5026716;28;20468;-79
2023/08/29 12:27:55;;;;;;;5.40;2.20;;;20.20;73.10;;;;;;5022699;28;20468;-80
2023/08/29 12:30:26;;;;;;;7.30;2.00;;;20.20;73.10;;;;;;5015322;28;20569;-81
2023/08/29 12:32:54;;;;;;;4.73;1.97;;;20.20;72.90;;;;;;5018007;28;20535;-79
2023/08/29 12:35:22;;;;;;;5.10;1.73;;;20.30;72.70;;;;;;5017968;28;20817;-79
2023/08/29 12:37:50;;;;;;;4.60;1.80;;;20.20;72.50;;;;;;5022208;28;20459;-80
2023/08/29 12:40:19;;;;;;;5.47;1.70;;;20.20;72.50;;;;;;5026632;28;20466;-80
2023/08/29 12:42:49;;;;;;;6.50;1.73;;;20.20;72.50;;;;;;5016326;28;20468;-78
2023/08/29 12:45:18;;;;;;;6.17;1.50;;;20.20;72.40;;;;;;5023092;28;20513;-81
2023/08/29 12:47:49;;;;;;;5.97;1.73;;;20.20;72.30;;;;;;5018216;28;20443;-80
2023/08/29 12:50:17;;;;;;;6.53;1.70;;;20.20;72.20;;;;;;5028246;28;20484;-80
2023/08/29 12:52:46;;;;;;;4.20;1.70;;;20.10;72.30;;;;;;5021159;28;20484;-80
2023/08/29 12:55:14;;;;;;;4.03;1.57;;;20.10;72.30;;;;;;5023756;28;20811;-81
2023/08/29 12:57:43;;;;;;;4.43;2.00;;;20.00;72.30;;;;;;5031317;28;20470;-81
2023/08/29 13:00:11;;;;;;;5.07;1.70;;;20.00;72.20;;;;;;5028602;28;21059;-78
2023/08/29 13:02:40;;;;;;;4.10;1.40;;;20.00;72.20;;;;;;5030444;28;20949;-80
2023/08/29 13:05:10;;;;;;;6.50;1.90;;;19.90;72.20;;;;;;5019033;28;20539;-79
2023/08/29 13:07:38;;;;;;;5.10;2.10;;;19.90;72.00;;;;;;5038560;28;20547;-79
2023/08/29 13:10:06;;;;;;;6.60;1.80;;;19.80;72.00;;;;;;5026352;28;20463;-79
2023/08/29 13:12:37;;;;;;;6.33;2.47;;;19.80;72.00;;;;;;5017543;28;20453;-81
2023/08/29 13:19:17;;;;;;;4.93;1.70;;;19.70;72.10;;;;;;5018360;28;20429;-79
2023/08/29 13:21:48;;;;;;;5.93;1.60;;;19.50;72.00;;;;;;5023643;28;20460;-80
2023/08/29 13:24:16;;;;;;;5.50;1.47;;;19.40;71.70;;;;;;5034397;28;20490;-79
2023/08/29 13:26:44;;;;;;;4.70;1.53;;;19.30;71.70;;;;;;5026207;28;20537;-79
2023/08/29 13:29:12;;;;;;;5.50;1.70;;;19.20;71.90;;;;;;5028187;28;20539;-80
2023/08/29 13:31:42;;;;;;;7.60;2.07;;;19.10;72.20;;;;;;5024260;28;21012;-81
2023/08/29 13:34:10;;;;;;;6.23;1.90;;;19.10;72.70;;;;;;5052551;28;20475;-78
2023/08/29 13:36:41;;;;;;;9.40;2.33;;;19.00;73.10;;;;;;5022092;28;20458;-79
2023/08/29 13:39:11;;;;;;;4.37;1.83;;;18.90;73.40;;;;;;5017512;28;20463;-79